KDLZ

Details ICAO KDLZ
Name Delaware Municipal
Region United States
Timezone America/New_York (UTC-5.0)
Plans Departing 42
Arriving 9
Stats Elevation 943 ft / 287 m (AMSL)
Location 40.279700° -83.114800°
Runways 1
Magnetic Variation 7.130° W
Sunrise 2018-12-19 12:51:55 UTC / 2018-12-19 07:51:55 Local
Sunset 2018-12-19 22:09:52 UTC / 2018-12-19 17:09:52 Local
Advertisement - Login to hide

Runways

ID Width Length Bearing (true/mag) Surface Threshold Overrun Markings Lighting
10 100 ft / 30 m 4,989 ft / 1,521 m 98.37° / 105.50° ASPHALT 0 ft / 0 m 0 ft / 0 m APP EDGE THRESHOLD REIL-OMNI
28 100 ft / 30 m 4,989 ft / 1,521 m 278.38° / 285.51° ASPHALT 0 ft / 0 m 0 ft / 0 m APP EDGE THRESHOLD REIL-OMNI

Map

Weather


0- 5 10 15 20 25 30 35+ Temperature / °C

Clouds and Precipitation
Forecast for 2018-12-19 06:00 UTC. Updated 5 hours ago

Ground ~20,000 ft ~40,000 ft Winds

METAR

KDLZ 190835Z AUTO 19003KT 10SM CLR M02/M03 A3009 RMK AO2

TAF

Not found

Frequencies

Recorded 119.02 MHz AWOS 3
Approach 125.95 MHz Columbus Approach
Unicom 122.70 MHz Delaware Unicom
Warning: Do not use this data for real-world aviation or navigation. No guarantee of current accuracy is given.